createdAt,value
2023-12-01T00:01:08.160Z,3.32
2023-12-01T00:03:34.553Z,3.34
2023-12-01T00:06:00.749Z,3.45
2023-12-01T00:08:26.912Z,3.22
2023-12-01T00:10:53.062Z,3.37
2023-12-01T00:13:19.324Z,3.55
2023-12-01T00:15:45.540Z,3.38
2023-12-01T00:18:11.931Z,3.29
2023-12-01T00:20:38.128Z,3.37
2023-12-01T00:23:04.287Z,3.42
2023-12-01T00:25:30.453Z,3.41
2023-12-01T00:27:56.676Z,3.25
2023-12-01T00:30:22.868Z,2.96
2023-12-01T00:32:49.138Z,2.78
2023-12-01T00:35:15.345Z,2.98
2023-12-01T00:37:41.502Z,2.85
2023-12-01T00:40:07.716Z,2.91
2023-12-01T00:42:33.999Z,2.73
2023-12-01T00:45:00.193Z,2.59
2023-12-01T00:47:26.424Z,2.81
2023-12-01T00:49:52.596Z,2.86
2023-12-01T00:52:18.787Z,2.93
2023-12-01T00:54:45.057Z,3.03
2023-12-01T00:57:11.265Z,3.26
2023-12-01T00:59:37.411Z,3.13
2023-12-01T01:02:03.626Z,2.97
2023-12-01T01:04:29.944Z,2.99
2023-12-01T01:06:56.223Z,2.97
2023-12-01T01:09:22.431Z,3.22
2023-12-01T01:11:48.628Z,3.19
2023-12-01T01:14:14.908Z,3.16
2023-12-01T01:16:41.156Z,3.06
2023-12-01T01:19:07.443Z,3.22
2023-12-01T01:21:33.674Z,3.19
2023-12-01T01:23:59.860Z,3.25
2023-12-01T01:26:26.039Z,3.25
2023-12-01T01:28:52.202Z,3.02
2023-12-01T01:31:18.433Z,3.32
2023-12-01T01:33:44.663Z,3.45
2023-12-01T01:36:10.853Z,3.40
2023-12-01T01:38:37.002Z,3.40
2023-12-01T01:41:03.162Z,3.41
2023-12-01T01:43:29.334Z,3.31
2023-12-01T01:45:55.569Z,3.41
2023-12-01T01:48:21.756Z,3.27
2023-12-01T01:50:47.918Z,3.23
2023-12-01T01:53:14.084Z,3.58
2023-12-01T01:55:40.253Z,3.61
2023-12-01T01:58:06.459Z,3.58
2023-12-01T02:00:32.656Z,3.45
2023-12-01T02:02:58.903Z,3.56
2023-12-01T02:05:25.179Z,3.52
2023-12-01T02:07:51.359Z,3.53
2023-12-01T02:10:17.818Z,3.60
2023-12-01T02:12:44.060Z,3.59
2023-12-01T02:15:10.299Z,3.53
2023-12-01T02:17:36.495Z,3.71
2023-12-01T02:20:02.748Z,3.56
2023-12-01T02:22:28.903Z,3.53
2023-12-01T02:24:55.082Z,3.51
2023-12-01T02:27:21.332Z,3.36
2023-12-01T02:29:47.493Z,2.99
2023-12-01T02:32:13.794Z,3.23
2023-12-01T02:34:39.951Z,2.46
2023-12-01T02:37:06.132Z,2.24
2023-12-01T02:39:32.330Z,2.78
2023-12-01T02:41:58.523Z,2.82
2023-12-01T02:44:24.670Z,3.47
2023-12-01T02:46:50.920Z,3.38
2023-12-01T02:49:17.218Z,3.51
2023-12-01T02:51:43.392Z,3.45
2023-12-01T02:54:09.556Z,3.51
2023-12-01T02:56:35.716Z,3.59
2023-12-01T02:59:01.914Z,3.55
2023-12-01T03:01:28.232Z,3.50
2023-12-01T03:03:54.545Z,3.50
2023-12-01T03:06:20.725Z,3.25
2023-12-01T03:08:46.895Z,3.35
2023-12-01T03:11:13.062Z,3.68
2023-12-01T03:13:39.262Z,3.61
2023-12-01T03:16:05.493Z,3.62
2023-12-01T03:18:31.789Z,3.61
2023-12-01T03:20:57.953Z,3.67
2023-12-01T03:23:24.105Z,3.63
2023-12-01T03:25:50.278Z,3.66
2023-12-01T03:28:16.681Z,3.77
2023-12-01T03:30:42.957Z,3.67
2023-12-01T03:33:09.192Z,3.57
2023-12-01T03:35:35.392Z,3.44
2023-12-01T03:38:01.580Z,3.58
2023-12-01T03:40:28.140Z,3.41
2023-12-01T03:42:54.667Z,2.81
2023-12-01T03:45:20.974Z,2.89
2023-12-01T03:47:47.187Z,3.00
2023-12-01T03:50:13.541Z,3.30
2023-12-01T03:52:39.763Z,3.68
2023-12-01T03:55:05.953Z,3.66
2023-12-01T03:57:32.168Z,3.79
2023-12-01T03:59:58.361Z,3.57
2023-12-01T04:02:24.626Z,3.51
2023-12-01T04:04:50.912Z,3.43
2023-12-01T04:07:17.187Z,3.63
2023-12-01T04:09:43.360Z,3.57
2023-12-01T04:12:09.919Z,3.66
2023-12-01T04:14:36.086Z,3.64
2023-12-01T04:17:02.273Z,3.81
2023-12-01T04:19:28.449Z,3.77
2023-12-01T04:21:54.662Z,3.69
2023-12-01T04:24:20.845Z,3.74
2023-12-01T04:26:46.996Z,3.96
2023-12-01T04:29:13.168Z,3.83
2023-12-01T04:31:39.645Z,3.88
2023-12-01T04:34:06.161Z,3.84
2023-12-01T04:36:32.330Z,3.89
2023-12-01T04:38:58.486Z,3.89
2023-12-01T04:41:24.657Z,3.72
2023-12-01T04:43:50.815Z,3.67
2023-12-01T04:46:17.081Z,3.67
2023-12-01T04:48:43.330Z,3.35
2023-12-01T04:51:09.538Z,3.65
2023-12-01T04:53:35.756Z,3.12
2023-12-01T04:56:01.916Z,3.15
2023-12-01T04:58:28.081Z,3.24
2023-12-01T05:00:54.256Z,3.25
2023-12-01T05:03:20.465Z,2.48
2023-12-01T05:05:46.650Z,2.34
2023-12-01T05:08:12.797Z,2.32
2023-12-01T05:10:39.010Z,2.59
2023-12-01T05:13:05.253Z,2.22
2023-12-01T05:15:31.438Z,2.68
2023-12-01T05:17:57.748Z,2.98
2023-12-01T05:20:23.978Z,3.06
2023-12-01T05:22:50.134Z,3.25
2023-12-01T05:25:16.371Z,3.38
2023-12-01T05:27:42.570Z,3.10
2023-12-01T05:30:08.773Z,3.34
2023-12-01T05:32:34.970Z,3.38
2023-12-01T05:35:01.182Z,3.27
2023-12-01T05:37:27.351Z,3.42
2023-12-01T05:39:53.624Z,3.30
2023-12-01T05:42:19.811Z,3.34
2023-12-01T05:44:45.965Z,3.29
2023-12-01T05:47:12.130Z,3.10
2023-12-01T05:49:38.292Z,2.99
2023-12-01T05:52:04.504Z,2.97
2023-12-01T05:54:30.689Z,3.23
2023-12-01T05:56:56.847Z,3.36
2023-12-01T05:59:23.013Z,3.30
2023-12-01T06:01:49.263Z,3.42
2023-12-01T06:04:15.520Z,3.30
2023-12-01T06:06:41.741Z,3.38
2023-12-01T06:09:07.935Z,3.41
2023-12-01T06:11:34.123Z,3.28
2023-12-01T06:14:00.278Z,3.22
2023-12-01T06:16:26.525Z,3.32
2023-12-01T06:18:52.730Z,3.30
2023-12-01T06:21:18.914Z,3.55
2023-12-01T06:23:45.151Z,3.08
2023-12-01T06:26:11.328Z,2.52
2023-12-01T06:28:37.509Z,2.23
2023-12-01T06:31:03.755Z,2.44
2023-12-01T06:33:29.929Z,2.40
2023-12-01T06:35:56.097Z,2.66
2023-12-01T06:38:22.263Z,2.92
2023-12-01T06:40:48.437Z,2.98
2023-12-01T06:43:14.595Z,3.11
2023-12-01T06:45:40.837Z,3.33
2023-12-01T06:48:07.064Z,3.35
2023-12-01T06:50:33.241Z,3.36
2023-12-01T06:52:59.432Z,3.76
2023-12-01T06:55:25.598Z,3.49
2023-12-01T06:57:51.788Z,2.70
2023-12-01T07:00:17.975Z,2.08
2023-12-01T07:02:44.185Z,1.97
2023-12-01T07:05:10.374Z,1.16
2023-12-01T07:07:36.538Z,0.46
2023-12-01T07:10:02.872Z,0.39
2023-12-01T07:12:29.105Z,-0.29
2023-12-01T07:14:55.324Z,-0.50
2023-12-01T07:17:21.525Z,-0.65
2023-12-01T07:19:47.737Z,-0.38
2023-12-01T07:22:13.941Z,-0.34
2023-12-01T07:24:40.157Z,-0.25
2023-12-01T07:27:06.325Z,0.81
2023-12-01T07:29:32.499Z,1.12
2023-12-01T07:31:58.715Z,1.61
2023-12-01T07:34:24.979Z,2.10
2023-12-01T07:36:51.203Z,2.06
2023-12-01T07:39:17.366Z,2.24
2023-12-01T07:41:43.527Z,2.46
2023-12-01T07:44:09.684Z,2.90
2023-12-01T07:46:35.961Z,2.82
2023-12-01T07:49:09.055Z,3.03
2023-12-01T07:51:35.921Z,3.15
2023-12-01T07:54:02.075Z,3.30
2023-12-01T07:56:28.249Z,3.24
2023-12-01T07:58:54.471Z,3.27
2023-12-01T08:01:20.662Z,3.34
2023-12-01T08:03:51.028Z,3.33
2023-12-01T08:06:17.282Z,3.15
2023-12-01T08:08:43.522Z,3.43
2023-12-01T08:11:09.741Z,3.09
2023-12-01T08:13:35.978Z,3.06
2023-12-01T08:16:02.290Z,3.19
2023-12-01T08:18:28.594Z,3.52
2023-12-01T08:20:54.871Z,3.59
2023-12-01T08:23:21.135Z,3.73
2023-12-01T08:25:47.348Z,3.83
2023-12-01T08:28:13.521Z,3.89
2023-12-01T08:30:48.574Z,3.90
2023-12-01T08:33:15.739Z,3.77
2023-12-01T08:35:41.948Z,3.82
2023-12-01T08:38:08.206Z,3.29
2023-12-01T08:40:42.963Z,3.34
2023-12-01T08:43:10.463Z,3.63
2023-12-01T08:45:36.676Z,3.94
2023-12-01T08:48:02.901Z,3.92
2023-12-01T08:50:29.100Z,3.73
2023-12-01T08:52:55.354Z,3.74
2023-12-01T08:55:21.566Z,3.61
2023-12-01T08:57:47.769Z,1.60
2023-12-01T09:00:14.052Z,2.16
2023-12-01T09:02:40.325Z,2.25
2023-12-01T09:05:06.754Z,1.83
2023-12-01T09:07:33.048Z,1.75
2023-12-01T09:09:59.357Z,1.39
2023-12-01T09:12:25.593Z,1.37
2023-12-01T09:14:51.938Z,1.30
2023-12-01T09:17:18.110Z,1.74
2023-12-01T09:19:44.351Z,2.14
2023-12-01T09:22:10.607Z,2.47
2023-12-01T09:24:36.801Z,2.62
2023-12-01T09:27:03.102Z,2.54
2023-12-01T09:29:29.271Z,2.54
2023-12-01T09:31:55.441Z,2.99
2023-12-01T09:34:21.607Z,2.99
2023-12-01T09:36:47.772Z,3.28
2023-12-01T09:39:14.021Z,3.16
2023-12-01T09:41:40.366Z,3.36
2023-12-01T09:44:13.134Z,3.60
2023-12-01T09:46:40.804Z,3.21
2023-12-01T09:49:07.043Z,3.49
2023-12-01T09:51:33.202Z,3.34
2023-12-01T09:53:59.425Z,3.22
2023-12-01T09:56:25.649Z,2.86
2023-12-01T09:58:51.844Z,1.59
2023-12-01T10:01:18.053Z,1.38
2023-12-01T10:03:44.362Z,1.36
2023-12-01T10:06:10.636Z,2.15
2023-12-01T10:08:36.846Z,2.46
2023-12-01T10:11:02.997Z,3.02
2023-12-01T10:13:29.183Z,3.47
2023-12-01T10:15:55.361Z,3.87
2023-12-01T10:18:23.999Z,3.91
2023-12-01T10:20:52.290Z,4.07
2023-12-01T10:23:18.454Z,4.33
2023-12-01T10:25:44.632Z,4.42
2023-12-01T10:28:10.801Z,4.44
2023-12-01T10:30:36.990Z,4.23
2023-12-01T10:33:03.185Z,4.62
2023-12-01T10:35:29.502Z,4.54
2023-12-01T10:37:55.725Z,3.13
2023-12-01T10:40:21.881Z,3.61
2023-12-01T10:42:48.075Z,2.59
2023-12-01T10:45:14.286Z,1.82
2023-12-01T10:47:40.511Z,1.73
2023-12-01T10:50:06.725Z,1.49
2023-12-01T10:52:32.891Z,1.20
2023-12-01T10:54:59.075Z,0.93
2023-12-01T10:57:25.300Z,0.74
2023-12-01T10:59:51.645Z,0.98
2023-12-01T11:02:17.900Z,1.21
2023-12-01T11:04:44.129Z,1.24
2023-12-01T11:07:10.300Z,0.99
2023-12-01T11:09:36.461Z,1.09
2023-12-01T11:12:02.658Z,1.06
2023-12-01T11:14:28.843Z,1.97
2023-12-01T11:16:55.043Z,2.82
2023-12-01T11:19:21.314Z,2.76
2023-12-01T11:21:47.519Z,3.03
2023-12-01T11:24:13.757Z,3.09
2023-12-01T11:26:39.967Z,3.40
2023-12-01T11:29:06.166Z,3.58
2023-12-01T11:31:32.365Z,3.85
2023-12-01T11:33:59.497Z,3.91
2023-12-01T11:36:26.156Z,3.75
2023-12-01T11:38:52.506Z,3.14
2023-12-01T11:41:18.670Z,3.47
2023-12-01T11:43:44.853Z,3.54
2023-12-01T11:46:11.174Z,3.67
2023-12-01T11:48:37.515Z,3.75
2023-12-01T11:51:03.766Z,4.16
2023-12-01T11:53:29.939Z,4.43
2023-12-01T11:55:56.116Z,4.38
2023-12-01T11:58:22.311Z,3.84
2023-12-01T12:00:48.782Z,4.20
2023-12-01T12:03:15.021Z,3.76
2023-12-01T12:05:41.283Z,3.99
2023-12-01T12:08:07.456Z,3.89
2023-12-01T12:10:33.620Z,3.55
2023-12-01T12:12:59.895Z,4.03
2023-12-01T12:15:26.159Z,4.54
2023-12-01T12:17:52.566Z,4.68
2023-12-01T12:20:18.955Z,4.85
2023-12-01T12:22:45.342Z,5.18
2023-12-01T12:25:11.731Z,5.11
2023-12-01T12:27:38.057Z,5.13
2023-12-01T12:30:04.424Z,4.45
2023-12-01T12:32:30.667Z,4.62
2023-12-01T12:34:56.856Z,3.87
2023-12-01T12:37:23.053Z,3.73
2023-12-01T12:39:49.393Z,2.76
2023-12-01T12:42:15.593Z,1.16
2023-12-01T12:44:44.864Z,1.14
2023-12-01T12:47:11.368Z,1.38
2023-12-01T12:49:37.533Z,1.41
2023-12-01T12:52:03.723Z,1.77
2023-12-01T12:54:29.979Z,2.34
2023-12-01T12:56:56.292Z,2.49
2023-12-01T12:59:22.517Z,2.15
2023-12-01T13:01:48.822Z,2.26
2023-12-01T13:04:15.151Z,0.84
2023-12-01T13:06:48.782Z,0.75
2023-12-01T13:09:16.398Z,0.89
2023-12-01T13:11:42.704Z,1.89
2023-12-01T13:14:08.904Z,2.27
2023-12-01T13:16:37.487Z,2.31
2023-12-01T13:19:07.998Z,2.88
2023-12-01T13:21:34.258Z,3.19
2023-12-01T13:24:00.539Z,3.44
2023-12-01T13:26:26.745Z,3.52
2023-12-01T13:28:52.907Z,3.63
2023-12-01T13:31:19.063Z,3.54
2023-12-01T13:33:45.368Z,3.74
2023-12-01T13:36:11.624Z,3.73
2023-12-01T13:38:37.911Z,3.58
2023-12-01T13:41:04.073Z,3.37
2023-12-01T13:43:30.232Z,3.00
2023-12-01T13:45:56.466Z,3.29
2023-12-01T13:48:22.715Z,2.98
2023-12-01T13:50:49.031Z,2.74
2023-12-01T13:53:15.329Z,1.32
2023-12-01T13:55:41.490Z,1.04
2023-12-01T13:58:07.731Z,0.21
2023-12-01T14:00:33.961Z,0.80
2023-12-01T14:03:00.291Z,1.27
2023-12-01T14:05:26.558Z,1.74
2023-12-01T14:07:52.730Z,2.12
2023-12-01T14:10:18.898Z,2.29
2023-12-01T14:12:45.075Z,2.47
2023-12-01T14:15:11.336Z,2.46
2023-12-01T14:17:37.609Z,1.91
2023-12-01T14:20:03.801Z,2.19
2023-12-01T14:22:29.962Z,2.09
2023-12-01T14:24:56.145Z,2.34
2023-12-01T14:27:22.365Z,2.45
2023-12-01T14:29:48.633Z,2.44
2023-12-01T14:32:18.524Z,1.88
2023-12-01T14:34:50.640Z,2.28
2023-12-01T14:37:17.470Z,2.63
2023-12-01T14:39:43.625Z,2.55
2023-12-01T14:42:09.817Z,2.32
2023-12-01T14:44:36.006Z,2.38
2023-12-01T14:47:02.179Z,2.54
2023-12-01T14:49:28.363Z,1.57
2023-12-01T14:51:54.529Z,1.31
2023-12-01T14:54:20.718Z,0.93
2023-12-01T14:56:46.930Z,1.30
2023-12-01T14:59:13.111Z,0.40
2023-12-01T15:01:39.367Z,1.08
2023-12-01T15:04:05.615Z,1.73
2023-12-01T15:06:33.856Z,1.91
2023-12-01T15:09:01.355Z,2.17
2023-12-01T15:11:27.615Z,2.02
2023-12-01T15:13:53.768Z,2.31
2023-12-01T15:16:19.957Z,2.30
2023-12-01T15:18:46.183Z,1.99
2023-12-01T15:21:12.362Z,1.88
2023-12-01T15:23:38.544Z,1.60
2023-12-01T15:26:04.701Z,2.15
2023-12-01T15:28:30.847Z,2.03
2023-12-01T15:30:57.028Z,1.98
2023-12-01T15:33:23.312Z,1.61
2023-12-01T15:35:49.582Z,1.32
2023-12-01T15:38:15.790Z,1.86
2023-12-01T15:40:41.943Z,1.82
2023-12-01T15:43:08.108Z,2.07
2023-12-01T15:45:34.295Z,2.04
2023-12-01T15:48:00.580Z,2.06
2023-12-01T15:50:26.811Z,2.27
2023-12-01T15:52:52.974Z,2.31
2023-12-01T15:55:19.132Z,2.40
2023-12-01T15:57:45.319Z,2.28
2023-12-01T16:00:11.559Z,2.21
2023-12-01T16:02:37.793Z,1.90
2023-12-01T16:05:03.965Z,2.00
2023-12-01T16:07:30.127Z,1.83
2023-12-01T16:09:56.294Z,1.80
2023-12-01T16:12:22.487Z,2.13
2023-12-01T16:14:48.711Z,2.33
2023-12-01T16:17:16.839Z,2.48
2023-12-01T16:19:44.595Z,2.65
2023-12-01T16:22:10.795Z,1.76
2023-12-01T16:24:39.095Z,1.69
2023-12-01T16:27:05.513Z,1.01
2023-12-01T16:29:31.696Z,0.43
2023-12-01T16:31:57.847Z,0.03
2023-12-01T16:34:24.056Z,-0.52
2023-12-01T16:36:53.812Z,-0.84
2023-12-01T16:39:20.814Z,-1.19
2023-12-01T16:41:47.035Z,-0.99
2023-12-01T16:44:13.214Z,-0.67
2023-12-01T16:46:39.393Z,-0.75
2023-12-01T16:49:05.676Z,-0.26
2023-12-01T16:51:31.960Z,0.01
2023-12-01T16:53:58.219Z,0.56
2023-12-01T16:56:24.405Z,0.46
2023-12-01T16:58:50.576Z,1.07
2023-12-01T17:01:16.757Z,1.20
2023-12-01T17:03:43.013Z,1.46
2023-12-01T17:06:09.299Z,1.60
2023-12-01T17:08:35.515Z,1.94
2023-12-01T17:11:01.686Z,2.02
2023-12-01T17:13:27.851Z,1.96
2023-12-01T17:15:54.050Z,1.96
2023-12-01T17:18:20.743Z,1.95
2023-12-01T17:20:47.046Z,1.99
2023-12-01T17:23:17.229Z,2.25
2023-12-01T17:25:43.672Z,2.34
2023-12-01T17:28:09.815Z,2.36
2023-12-01T17:30:35.995Z,2.39
2023-12-01T17:33:02.225Z,2.42
2023-12-01T17:35:28.408Z,2.36
2023-12-01T17:37:54.602Z,2.15
2023-12-01T17:40:20.772Z,2.49
2023-12-01T17:42:46.935Z,2.37
2023-12-01T17:45:13.152Z,2.52
2023-12-01T17:47:39.338Z,2.46
2023-12-01T17:50:05.510Z,2.04
2023-12-01T17:52:31.669Z,1.95
2023-12-01T17:54:57.850Z,2.03
2023-12-01T17:57:24.018Z,1.94
2023-12-01T17:59:50.308Z,2.04
2023-12-01T18:02:16.528Z,1.99
2023-12-01T18:04:42.897Z,2.04
2023-12-01T18:07:09.095Z,2.13
2023-12-01T18:09:35.791Z,2.10
2023-12-01T18:12:02.248Z,2.17
2023-12-01T18:14:28.430Z,1.92
2023-12-01T18:16:54.625Z,0.42
2023-12-01T18:19:20.861Z,0.67
2023-12-01T18:21:47.299Z,0.12
2023-12-01T18:24:13.511Z,0.06
2023-12-01T18:26:41.789Z,-0.37
2023-12-01T18:29:08.189Z,-0.38
2023-12-01T18:31:34.373Z,-0.63
2023-12-01T18:34:00.655Z,-0.47
2023-12-01T18:36:26.961Z,-0.95
2023-12-01T18:38:53.205Z,-0.71
2023-12-01T18:41:19.424Z,-0.25
2023-12-01T18:43:45.618Z,0.09
2023-12-01T18:46:11.865Z,-0.25
2023-12-01T18:48:38.177Z,-0.62
2023-12-01T18:51:07.059Z,-0.65
2023-12-01T18:53:33.951Z,-0.84
2023-12-01T18:56:00.183Z,-0.77
2023-12-01T18:58:26.392Z,-0.74
2023-12-01T19:00:52.637Z,-0.54
2023-12-01T19:03:19.071Z,-0.65
2023-12-01T19:05:45.344Z,-0.97
2023-12-01T19:08:11.514Z,-1.03
2023-12-01T19:10:37.695Z,-0.55
2023-12-01T19:13:03.861Z,-0.60
2023-12-01T19:15:30.043Z,0.07
2023-12-01T19:17:56.323Z,0.54
2023-12-01T19:20:22.565Z,-0.19
2023-12-01T19:22:48.740Z,0.13
2023-12-01T19:25:14.907Z,0.03
2023-12-01T19:27:41.073Z,-0.11
2023-12-01T19:30:07.260Z,-0.66
2023-12-01T19:32:33.532Z,-1.12
2023-12-01T19:34:59.760Z,-1.17
2023-12-01T19:37:25.918Z,-0.94
2023-12-01T19:39:52.104Z,-0.49
2023-12-01T19:42:18.295Z,0.05
2023-12-01T19:44:44.476Z,0.26
2023-12-01T19:47:10.643Z,0.59
2023-12-01T19:49:36.857Z,0.59
2023-12-01T19:52:03.075Z,0.76
2023-12-01T19:54:29.291Z,0.78
2023-12-01T19:56:55.461Z,0.87
2023-12-01T19:59:21.652Z,0.89
2023-12-01T20:01:48.005Z,1.08
2023-12-01T20:04:14.388Z,1.30
2023-12-01T20:06:40.622Z,1.28
2023-12-01T20:09:06.848Z,1.46
2023-12-01T20:11:33.008Z,1.37
2023-12-01T20:13:59.176Z,1.18
2023-12-01T20:16:25.359Z,1.52
2023-12-01T20:18:51.707Z,1.54
2023-12-01T20:21:18.005Z,1.50
2023-12-01T20:23:44.191Z,1.69
2023-12-01T20:26:10.373Z,1.75
2023-12-01T20:28:36.532Z,1.67
2023-12-01T20:31:02.740Z,1.77
2023-12-01T20:33:28.987Z,1.91
2023-12-01T20:35:55.222Z,2.18
2023-12-01T20:38:21.400Z,1.67
2023-12-01T20:40:47.611Z,1.63
2023-12-01T20:43:13.791Z,1.42
2023-12-01T20:45:39.969Z,1.54
2023-12-01T20:48:06.292Z,2.01
2023-12-01T20:50:32.502Z,1.98
2023-12-01T20:52:58.677Z,2.05
2023-12-01T20:55:24.881Z,1.83
2023-12-01T20:57:51.062Z,1.65
2023-12-01T21:00:17.264Z,1.57
2023-12-01T21:02:43.469Z,1.73
2023-12-01T21:05:09.704Z,1.86
2023-12-01T21:07:35.909Z,1.86
2023-12-01T21:10:02.082Z,1.78
2023-12-01T21:12:28.337Z,1.40
2023-12-01T21:14:54.733Z,-0.09
2023-12-01T21:17:20.954Z,-1.06
2023-12-01T21:19:47.127Z,-1.45
2023-12-01T21:22:13.307Z,-1.17
2023-12-01T21:24:39.458Z,-0.76
2023-12-01T21:27:05.627Z,-0.05
2023-12-01T21:29:31.810Z,-0.01
2023-12-01T21:31:57.971Z,-0.21
2023-12-01T21:34:24.207Z,0.06
2023-12-01T21:36:50.412Z,-0.13
2023-12-01T21:39:16.622Z,-1.18
2023-12-01T21:41:42.816Z,-1.60
2023-12-01T21:44:08.972Z,-1.19
2023-12-01T21:46:35.156Z,-0.78
2023-12-01T21:49:01.421Z,-0.11
2023-12-01T21:51:27.679Z,-1.01
2023-12-01T21:53:53.850Z,-1.11
2023-12-01T21:56:20.023Z,-1.22
2023-12-01T21:58:46.169Z,-0.98
2023-12-01T22:01:12.331Z,-0.57
2023-12-01T22:03:38.500Z,-0.13
2023-12-01T22:06:04.712Z,-0.07
2023-12-01T22:08:30.905Z,-0.29
2023-12-01T22:10:57.090Z,-0.90
2023-12-01T22:13:23.253Z,-0.52
2023-12-01T22:15:49.409Z,-0.77
2023-12-01T22:18:15.706Z,-0.42
2023-12-01T22:20:41.906Z,-0.37
2023-12-01T22:23:08.072Z,-0.40
2023-12-01T22:25:34.222Z,-0.03
2023-12-01T22:28:00.379Z,0.25
2023-12-01T22:30:26.567Z,0.48
2023-12-01T22:32:52.828Z,0.71
2023-12-01T22:35:19.046Z,0.52
2023-12-01T22:37:45.217Z,0.79
2023-12-01T22:40:11.396Z,1.14
2023-12-01T22:42:37.561Z,1.33
2023-12-01T22:45:03.763Z,1.30
2023-12-01T22:47:29.987Z,1.12
2023-12-01T22:49:56.162Z,1.28
2023-12-01T22:52:22.325Z,0.59
2023-12-01T22:54:48.506Z,0.47
2023-12-01T22:57:14.744Z,0.37
2023-12-01T22:59:40.946Z,0.22
2023-12-01T23:02:07.198Z,0.23
2023-12-01T23:04:33.595Z,0.61
2023-12-01T23:06:59.922Z,0.62
2023-12-01T23:09:26.211Z,0.70
2023-12-01T23:11:52.487Z,0.61
2023-12-01T23:14:18.676Z,0.62
2023-12-01T23:16:44.844Z,-0.19
2023-12-01T23:19:11.121Z,-0.63
2023-12-01T23:21:37.494Z,-0.62
2023-12-01T23:24:03.722Z,-0.51
2023-12-01T23:26:29.981Z,-0.40
2023-12-01T23:28:56.382Z,-0.06
2023-12-01T23:31:22.540Z,0.17
2023-12-01T23:33:48.816Z,0.49
2023-12-01T23:36:15.208Z,0.44
2023-12-01T23:38:41.383Z,0.50
2023-12-01T23:41:07.580Z,0.51
2023-12-01T23:43:33.755Z,0.71
2023-12-01T23:45:59.926Z,0.46
2023-12-01T23:48:26.260Z,0.65
2023-12-01T23:50:52.573Z,0.85
2023-12-01T23:53:18.761Z,0.93
2023-12-01T23:55:44.963Z,0.76
2023-12-01T23:58:11.138Z,0.82
